Time;durP1;ratioP1;P1;durP2;ratioP2;P2;SDS_P1;SDS_P2;PMS_P1;PMS_P2;Temp;Humidity;BMP_temperature;BMP_pressure;BME280_temperature;BME280_humidity;BME280_pressure;Samples;Min_cycle;Max_cycle;Signal;HPM_P1;HPM_P2
2023/01/29 00:01:03;;;;;;;10.00;9.00;;;3.90;99.90;;;;;;4988115;28;20232;-78
2023/01/29 00:03:33;;;;;;;11.75;10.10;;;3.90;99.90;;;;;;4973627;28;20572;-78
2023/01/29 00:06:05;;;;;;;9.15;8.18;;;3.90;99.90;;;;;;4981838;28;20221;-76
2023/01/29 00:08:33;;;;;;;9.00;8.18;;;3.90;99.90;;;;;;4983782;28;20251;-76
2023/01/29 00:11:02;;;;;;;9.80;7.85;;;3.90;99.90;;;;;;5014685;28;20327;-77
2023/01/29 00:13:31;;;;;;;7.38;6.63;;;3.90;99.90;;;;;;5019442;28;20677;-76
2023/01/29 00:16:10;;;;;;;8.18;7.38;;;3.90;99.90;;;;;;4982222;28;20229;-78
2023/01/29 00:18:39;;;;;;;8.75;7.85;;;3.90;99.90;;;;;;4983821;28;20653;-78
2023/01/29 00:21:13;;;;;;;11.10;9.40;;;3.90;99.90;;;;;;5037959;28;20298;-75
2023/01/29 00:23:40;;;;;;;11.23;9.20;;;3.90;99.90;;;;;;4983383;28;20251;-78
2023/01/29 00:26:10;;;;;;;10.60;9.15;;;3.90;99.90;;;;;;4997422;28;20223;-75
2023/01/29 00:28:38;;;;;;;12.98;10.15;;;3.90;99.90;;;;;;5018391;28;20220;-78
2023/01/29 00:31:13;;;;;;;12.68;10.65;;;3.90;99.90;;;;;;5008717;28;20307;-78
2023/01/29 00:33:40;;;;;;;10.35;9.00;;;3.90;99.90;;;;;;4988063;28;20273;-76
2023/01/29 00:36:12;;;;;;;9.35;8.40;;;3.90;99.90;;;;;;4991356;28;20220;-78
2023/01/29 00:38:42;;;;;;;10.23;8.18;;;3.90;99.90;;;;;;5021753;28;20302;-76
2023/01/29 00:46:40;;;;;;;13.88;10.57;;;3.90;99.90;;;;;;4986844;28;20278;-79
2023/01/29 00:49:08;;;;;;;19.20;14.63;;;4.00;99.90;;;;;;4991011;28;20290;-79
2023/01/29 00:52:22;;;;;;;13.00;11.25;;;3.90;99.90;;;;;;5021478;28;20230;-78
2023/01/29 00:54:31;;;;;;;14.90;13.40;;;3.90;99.90;;;;;;4969760;28;20220;-78
2023/01/29 00:57:02;;;;;;;12.55;10.13;;;3.90;99.90;;;;;;5008089;28;20251;-78
2023/01/29 00:59:29;;;;;;;10.52;9.43;;;3.90;99.90;;;;;;4982186;28;20229;-77
2023/01/29 01:04:42;;;;;;;13.10;10.35;;;4.00;99.90;;;;;;5039683;28;20239;-76
2023/01/29 01:07:13;;;;;;;12.93;10.38;;;4.00;99.90;;;;;;4983461;28;20704;-76
2023/01/29 01:12:24;;;;;;;14.95;11.98;;;4.00;99.90;;;;;;4975915;28;20228;-76
2023/01/29 01:14:52;;;;;;;12.55;11.10;;;4.00;99.90;;;;;;5042665;28;20227;-76
2023/01/29 01:17:20;;;;;;;12.07;10.05;;;4.00;99.90;;;;;;5025383;28;20450;-78
2023/01/29 01:19:50;;;;;;;13.43;11.18;;;4.00;99.90;;;;;;5015218;28;20236;-76
2023/01/29 01:22:17;;;;;;;13.32;10.98;;;4.00;99.90;;;;;;4986517;28;20225;-76
2023/01/29 01:24:45;;;;;;;13.82;11.00;;;4.00;99.90;;;;;;4988611;28;20670;-75
2023/01/29 01:27:18;;;;;;;12.77;11.48;;;4.00;99.90;;;;;;5020332;28;20232;-77
2023/01/29 01:29:45;;;;;;;14.68;11.57;;;4.00;99.90;;;;;;5020127;28;20327;-78
2023/01/29 01:32:13;;;;;;;16.13;13.02;;;4.00;99.90;;;;;;4992277;28;20647;-77
2023/01/29 01:34:44;;;;;;;14.20;12.68;;;4.00;99.90;;;;;;4986254;28;20230;-78
2023/01/29 01:37:12;;;;;;;14.40;11.50;;;4.00;99.90;;;;;;5011852;28;20224;-76
2023/01/29 01:39:39;;;;;;;12.75;11.35;;;4.00;99.90;;;;;;5020455;28;20291;-76
2023/01/29 01:42:10;;;;;;;13.30;11.90;;;4.00;99.90;;;;;;4995040;28;20301;-78
2023/01/29 01:44:57;;;;;;;15.60;12.93;;;4.10;99.90;;;;;;4979195;28;20228;-78
2023/01/29 01:47:33;;;;;;;16.10;13.75;;;4.00;99.90;;;;;;5009490;28;20302;-75
2023/01/29 01:50:07;;;;;;;17.23;12.30;;;4.00;99.90;;;;;;5019536;28;20291;-78
2023/01/29 01:52:40;;;;;;;17.25;11.88;;;4.10;99.90;;;;;;5053571;28;20678;-76
2023/01/29 01:55:12;;;;;;;16.17;13.30;;;4.00;99.90;;;;;;5053391;28;20274;-76
2023/01/29 01:57:40;;;;;;;16.13;13.73;;;4.00;99.90;;;;;;5053982;28;20290;-76
2023/01/29 02:00:14;;;;;;;16.05;13.90;;;4.10;99.90;;;;;;5038151;28;20640;-77
2023/01/29 02:11:26;;;;;;;14.65;11.50;;;4.10;99.90;;;;;;5045929;28;20243;-76
2023/01/29 02:13:53;;;;;;;14.15;12.65;;;4.10;99.90;;;;;;5054379;28;20282;-77
2023/01/29 02:16:21;;;;;;;18.77;14.90;;;4.10;99.90;;;;;;5053739;28;20282;-77
2023/01/29 02:18:51;;;;;;;16.33;14.38;;;4.00;99.90;;;;;;5053946;28;20581;-77
2023/01/29 02:21:51;;;;;;;22.08;16.80;;;4.00;99.90;;;;;;5053195;28;20547;-78
2023/01/29 02:24:54;;;;;;;21.58;13.98;;;4.00;99.90;;;;;;5042737;28;20320;-77
2023/01/29 02:27:25;;;;;;;16.35;13.70;;;3.90;99.90;;;;;;5040744;28;20232;-76
2023/01/29 02:30:01;;;;;;;17.80;12.73;;;3.90;99.90;;;;;;5052864;28;20232;-76
2023/01/29 02:32:34;;;;;;;16.70;13.95;;;3.90;99.90;;;;;;5052476;28;20247;-76
2023/01/29 02:35:31;;;;;;;13.15;11.65;;;4.00;99.90;;;;;;5052967;28;20224;-77
2023/01/29 02:38:11;;;;;;;12.80;10.65;;;4.00;99.90;;;;;;5052771;28;20308;-76
2023/01/29 02:40:43;;;;;;;14.68;11.00;;;4.00;99.90;;;;;;5053003;28;20226;-75
2023/01/29 02:43:17;;;;;;;16.50;12.20;;;4.00;99.90;;;;;;5052512;28;20225;-75
2023/01/29 02:45:50;;;;;;;13.45;11.68;;;4.00;99.90;;;;;;5047043;28;20212;-77
2023/01/29 02:48:19;;;;;;;12.27;10.77;;;4.00;99.90;;;;;;5045915;28;20716;-77
2023/01/29 02:50:54;;;;;;;14.73;11.48;;;4.10;99.90;;;;;;5039576;28;20247;-77
2023/01/29 02:53:27;;;;;;;16.10;12.45;;;4.10;99.90;;;;;;5051886;28;20220;-78
2023/01/29 02:56:03;;;;;;;16.65;12.43;;;4.00;99.90;;;;;;5041523;28;20221;-78
2023/01/29 02:58:33;;;;;;;14.35;12.85;;;4.00;99.90;;;;;;5038121;28;20219;-78
2023/01/29 03:01:07;;;;;;;15.50;12.35;;;4.10;99.90;;;;;;5050266;28;20306;-79
2023/01/29 03:03:38;;;;;;;13.98;11.95;;;4.00;99.90;;;;;;5052250;28;20223;-76
2023/01/29 03:06:17;;;;;;;16.02;13.13;;;4.00;99.90;;;;;;5058946;28;20249;-76
2023/01/29 03:08:48;;;;;;;21.15;13.20;;;4.10;99.90;;;;;;5040013;28;20554;-76
2023/01/29 03:11:17;;;;;;;20.40;12.73;;;4.10;99.90;;;;;;5052548;28;20224;-76
2023/01/29 03:13:47;;;;;;;16.35;13.55;;;4.10;99.90;;;;;;5052578;28;20216;-76
2023/01/29 03:16:22;;;;;;;18.60;13.77;;;4.10;99.90;;;;;;5051924;28;20236;-76
2023/01/29 03:18:55;;;;;;;13.68;11.95;;;4.10;99.90;;;;;;5052331;28;20657;-76
2023/01/29 03:32:43;;;;;;;14.18;12.40;;;4.20;99.90;;;;;;5052282;28;20622;-78
2023/01/29 03:35:13;;;;;;;14.57;12.55;;;4.20;99.90;;;;;;5047141;28;20231;-79
2023/01/29 03:37:44;;;;;;;14.85;12.98;;;4.20;99.90;;;;;;5050262;28;20274;-78
2023/01/29 03:40:12;;;;;;;20.40;15.32;;;4.20;99.90;;;;;;5051748;28;20319;-78
2023/01/29 03:42:51;;;;;;;20.05;14.85;;;4.30;99.90;;;;;;5051931;28;20224;-76
2023/01/29 03:45:33;;;;;;;14.48;12.88;;;4.20;99.90;;;;;;5043726;28;20221;-75
2023/01/29 03:48:08;;;;;;;17.33;14.20;;;4.30;99.90;;;;;;5051914;28;20666;-75
2023/01/29 03:50:42;;;;;;;19.90;13.93;;;4.30;99.90;;;;;;5052014;28;20235;-76
2023/01/29 03:53:20;;;;;;;17.92;14.35;;;4.20;99.90;;;;;;5051295;28;20228;-75
2023/01/29 03:55:57;;;;;;;20.00;13.90;;;4.20;99.90;;;;;;5040503;28;20282;-77
2023/01/29 03:58:30;;;;;;;17.15;13.23;;;4.10;99.90;;;;;;5042907;28;20561;-77
2023/01/29 04:01:01;;;;;;;18.50;14.32;;;4.20;99.90;;;;;;5052142;28;20254;-75
2023/01/29 04:03:34;;;;;;;15.63;12.57;;;4.20;99.90;;;;;;5051203;28;20236;-75
2023/01/29 04:06:09;;;;;;;15.25;12.05;;;4.20;99.90;;;;;;5056131;28;20598;-77
2023/01/29 04:08:45;;;;;;;15.70;13.38;;;4.20;99.90;;;;;;5042878;28;20242;-77
2023/01/29 04:11:21;;;;;;;16.90;13.30;;;4.20;99.90;;;;;;5048161;28;20785;-78
2023/01/29 04:13:48;;;;;;;14.88;13.05;;;4.10;99.90;;;;;;5030960;28;20582;-75
2023/01/29 04:16:20;;;;;;;13.80;11.52;;;4.10;99.90;;;;;;5045016;28;20226;-80
2023/01/29 04:18:49;;;;;;;18.95;13.65;;;4.20;99.90;;;;;;5058452;28;20239;-79
2023/01/29 04:21:17;;;;;;;17.73;13.35;;;4.10;99.90;;;;;;5058843;28;20744;-79
2023/01/29 04:23:44;;;;;;;14.98;12.10;;;4.10;99.90;;;;;;5059635;28;20255;-79
2023/01/29 04:26:25;;;;;;;17.33;13.25;;;4.00;99.90;;;;;;5060252;28;20224;-77
2023/01/29 04:29:09;;;;;;;15.00;13.48;;;4.10;99.90;;;;;;5055520;28;20530;-77
2023/01/29 04:31:54;;;;;;;14.80;12.40;;;4.10;99.90;;;;;;5042180;28;20282;-77
2023/01/29 04:34:29;;;;;;;17.60;13.73;;;4.10;99.90;;;;;;5055437;28;20295;-77
2023/01/29 04:37:06;;;;;;;15.50;11.90;;;4.10;99.90;;;;;;5054653;28;20232;-79
2023/01/29 04:39:44;;;;;;;15.00;12.65;;;4.10;99.90;;;;;;5054687;28;20262;-78
2023/01/29 04:45:18;;;;;;;15.80;11.85;;;4.10;99.90;;;;;;5040278;28;20240;-77
2023/01/29 04:47:50;;;;;;;18.98;13.88;;;4.10;99.90;;;;;;5042714;28;20654;-77
2023/01/29 04:50:31;;;;;;;17.50;13.30;;;4.10;99.90;;;;;;5054554;28;20236;-77
2023/01/29 04:53:06;;;;;;;19.30;12.55;;;4.10;99.90;;;;;;5055395;28;20232;-77
2023/01/29 04:55:42;;;;;;;18.27;13.90;;;4.10;99.90;;;;;;5055204;28;20224;-79
2023/01/29 04:58:12;;;;;;;21.65;14.52;;;4.10;99.90;;;;;;5054487;28;20319;-79
2023/01/29 05:00:42;;;;;;;15.30;12.52;;;4.10;99.90;;;;;;5054977;28;20230;-79
2023/01/29 05:03:13;;;;;;;18.42;14.10;;;4.20;99.90;;;;;;5054542;28;20682;-79
2023/01/29 05:05:45;;;;;;;22.02;17.23;;;4.20;99.90;;;;;;5058187;28;20274;-77
2023/01/29 05:08:25;;;;;;;19.13;14.55;;;4.20;99.90;;;;;;5054335;28;20235;-77
2023/01/29 05:10:54;;;;;;;28.20;17.38;;;4.20;99.90;;;;;;5054449;28;20267;-77
2023/01/29 05:16:40;;;;;;;21.48;17.73;;;4.20;99.90;;;;;;4977759;28;20687;-77
2023/01/29 05:19:08;;;;;;;23.05;17.48;;;4.20;99.90;;;;;;5051153;28;20224;-79
2023/01/29 05:21:40;;;;;;;26.77;17.27;;;4.20;99.90;;;;;;5054005;28;20221;-79
2023/01/29 05:24:12;;;;;;;19.67;15.95;;;4.20;99.90;;;;;;5054067;28;20282;-76
2023/01/29 05:29:23;;;;;;;20.40;15.68;;;4.20;99.90;;;;;;5054162;28;20804;-79
2023/01/29 05:31:50;;;;;;;21.67;16.92;;;4.20;99.90;;;;;;5054414;28;20240;-79
2023/01/29 05:34:17;;;;;;;23.17;16.08;;;4.20;99.90;;;;;;5053462;28;20253;-79
2023/01/29 05:36:45;;;;;;;26.25;17.38;;;4.20;99.90;;;;;;5054474;28;20221;-78
2023/01/29 05:39:13;;;;;;;28.88;18.10;;;4.20;99.90;;;;;;5040951;28;20231;-79
2023/01/29 05:41:41;;;;;;;21.95;17.70;;;4.20;99.90;;;;;;5054249;28;20227;-77
2023/01/29 05:47:09;;;;;;;21.38;16.83;;;4.20;99.90;;;;;;5023432;28;20275;-79
2023/01/29 05:49:37;;;;;;;22.83;16.25;;;4.20;99.90;;;;;;5053947;28;20237;-80
2023/01/29 05:52:08;;;;;;;27.38;16.58;;;4.20;99.90;;;;;;5053218;28;20229;-76
2023/01/29 05:54:35;;;;;;;24.02;17.50;;;4.20;99.90;;;;;;5053164;28;20231;-79
2023/01/29 05:57:02;;;;;;;24.15;17.63;;;4.30;99.90;;;;;;5055005;28;20229;-78
2023/01/29 05:59:30;;;;;;;22.00;16.67;;;4.30;99.90;;;;;;5052958;28;20314;-76
2023/01/29 06:01:57;;;;;;;25.30;17.73;;;4.30;99.90;;;;;;5054228;28;20259;-80
2023/01/29 06:04:24;;;;;;;30.60;18.58;;;4.30;99.90;;;;;;5052713;28;20354;-77
2023/01/29 06:06:53;;;;;;;26.85;18.80;;;4.30;99.90;;;;;;5054326;28;20231;-76
2023/01/29 06:09:22;;;;;;;23.55;17.38;;;4.30;99.90;;;;;;5054026;28;20236;-79
2023/01/29 06:11:49;;;;;;;26.90;19.60;;;4.30;99.90;;;;;;5053016;28;20233;-79
2023/01/29 06:17:00;;;;;;;22.65;16.42;;;4.30;99.90;;;;;;5016301;28;20220;-75
2023/01/29 06:19:27;;;;;;;21.92;14.60;;;4.30;99.90;;;;;;5052065;28;20228;-76
2023/01/29 06:21:56;;;;;;;21.95;16.50;;;4.30;99.90;;;;;;5054392;28;20229;-76
2023/01/29 06:24:25;;;;;;;25.05;17.45;;;4.30;99.90;;;;;;5051055;28;20236;-76
2023/01/29 06:26:52;;;;;;;23.40;17.60;;;4.30;99.90;;;;;;5049089;28;20232;-76
2023/01/29 06:29:19;;;;;;;25.30;18.45;;;4.30;99.90;;;;;;5051826;28;20232;-79
2023/01/29 06:31:46;;;;;;;29.55;20.27;;;4.30;99.90;;;;;;5050991;28;20228;-78
2023/01/29 06:34:14;;;;;;;25.60;19.20;;;4.30;99.90;;;;;;5052293;28;20225;-76
2023/01/29 06:36:41;;;;;;;25.95;17.77;;;4.30;99.90;;;;;;5051794;28;20224;-75
2023/01/29 06:39:09;;;;;;;26.73;17.80;;;4.30;99.90;;;;;;5053263;28;20225;-78
2023/01/29 06:41:38;;;;;;;24.48;18.73;;;4.30;99.90;;;;;;5054419;28;20251;-77
2023/01/29 06:44:05;;;;;;;30.05;20.48;;;4.30;99.90;;;;;;5055343;28;20540;-75
2023/01/29 06:46:45;;;;;;;23.08;18.63;;;4.20;99.90;;;;;;5047468;28;20240;-78
2023/01/29 06:49:14;;;;;;;23.95;18.35;;;4.20;99.90;;;;;;5055234;28;20220;-79
2023/01/29 06:51:41;;;;;;;26.75;19.10;;;4.30;99.90;;;;;;5057447;28;20310;-76
2023/01/29 06:54:09;;;;;;;27.40;20.27;;;4.20;99.90;;;;;;5056236;28;20231;-77
2023/01/29 06:56:37;;;;;;;23.33;17.27;;;4.20;99.90;;;;;;5055495;28;20239;-76
2023/01/29 06:59:04;;;;;;;22.92;17.23;;;4.20;99.90;;;;;;5057015;28;20655;-79
2023/01/29 07:01:31;;;;;;;21.33;17.23;;;4.20;99.90;;;;;;5054727;28;20231;-79
2023/01/29 07:03:58;;;;;;;22.75;16.33;;;4.20;99.90;;;;;;5058162;28;20654;-78
2023/01/29 07:06:28;;;;;;;22.98;17.20;;;4.20;99.90;;;;;;5056471;28;20225;-76
2023/01/29 07:08:56;;;;;;;24.90;17.05;;;4.20;99.90;;;;;;5050054;28;20216;-79
2023/01/29 07:11:23;;;;;;;26.50;18.17;;;4.20;99.90;;;;;;5048148;28;20303;-79
2023/01/29 07:13:51;;;;;;;23.00;16.92;;;4.30;99.90;;;;;;5057339;28;20305;-78
2023/01/29 07:16:25;;;;;;;23.45;17.08;;;4.20;99.90;;;;;;5054370;28;20243;-78
2023/01/29 07:18:52;;;;;;;30.58;20.00;;;4.30;99.90;;;;;;5044504;28;20229;-78
2023/01/29 07:21:19;;;;;;;20.17;16.67;;;4.20;99.90;;;;;;5052508;28;20605;-78
2023/01/29 07:23:50;;;;;;;25.95;17.30;;;4.20;99.90;;;;;;5052877;28;20228;-78
2023/01/29 07:26:18;;;;;;;21.10;16.70;;;4.20;99.90;;;;;;5053533;28;20682;-75
2023/01/29 07:28:45;;;;;;;20.77;15.48;;;4.20;99.90;;;;;;5052046;28;20286;-75
2023/01/29 07:31:14;;;;;;;24.77;15.90;;;4.20;99.90;;;;;;5052951;28;20263;-80
2023/01/29 07:33:44;;;;;;;25.08;17.60;;;4.30;99.90;;;;;;5052519;28;20278;-75
2023/01/29 07:36:12;;;;;;;22.13;16.33;;;4.30;99.90;;;;;;5052921;28;20242;-79
2023/01/29 07:38:39;;;;;;;23.20;16.73;;;4.30;99.90;;;;;;5053001;28;20223;-79
2023/01/29 07:41:06;;;;;;;26.95;18.50;;;4.30;99.90;;;;;;5056988;28;20262;-78
2023/01/29 07:43:34;;;;;;;26.90;18.33;;;4.40;99.90;;;;;;5056725;28;20228;-79
2023/01/29 07:46:03;;;;;;;21.60;16.50;;;4.40;99.90;;;;;;5056493;28;20332;-79
2023/01/29 07:48:33;;;;;;;26.35;19.15;;;4.40;99.90;;;;;;5057140;28;20221;-78
2023/01/29 07:51:00;;;;;;;27.08;19.75;;;4.50;99.90;;;;;;5055259;28;20229;-79
2023/01/29 07:53:28;;;;;;;26.52;19.65;;;4.50;99.90;;;;;;5056471;28;20732;-78
2023/01/29 07:55:55;;;;;;;25.40;18.85;;;4.40;99.90;;;;;;5056466;28;20228;-78
2023/01/29 07:58:22;;;;;;;25.45;16.90;;;4.50;99.90;;;;;;5045784;28;20621;-79
2023/01/29 08:00:49;;;;;;;25.60;18.63;;;4.50;99.90;;;;;;5055866;28;20286;-78
2023/01/29 08:03:18;;;;;;;24.50;17.42;;;4.40;99.90;;;;;;5055828;28;20266;-78
2023/01/29 08:05:47;;;;;;;25.40;17.67;;;4.40;99.90;;;;;;5056201;28;20685;-78
2023/01/29 08:08:15;;;;;;;25.95;19.33;;;4.50;99.90;;;;;;5056067;28;20670;-78
2023/01/29 08:10:42;;;;;;;25.40;18.27;;;4.50;99.90;;;;;;5055977;28;20247;-78
2023/01/29 08:13:10;;;;;;;27.42;20.05;;;4.50;99.90;;;;;;5055247;28;20682;-78
2023/01/29 08:15:37;;;;;;;25.63;19.45;;;4.50;99.90;;;;;;5055984;28;20278;-76
2023/01/29 08:18:04;;;;;;;22.60;16.98;;;4.50;99.90;;;;;;5055369;28;20228;-76
2023/01/29 08:20:33;;;;;;;23.65;19.52;;;4.50;99.90;;;;;;5055550;28;20225;-78
2023/01/29 08:23:02;;;;;;;27.20;18.67;;;4.50;99.90;;;;;;5055571;28;20755;-76
2023/01/29 08:25:29;;;;;;;24.90;19.10;;;4.50;99.90;;;;;;5055533;28;20286;-76
2023/01/29 08:27:57;;;;;;;22.13;17.40;;;4.50;99.90;;;;;;5046407;28;20275;-78
2023/01/29 08:30:26;;;;;;;24.88;18.75;;;4.50;99.90;;;;;;5056392;28;20378;-76
2023/01/29 08:32:54;;;;;;;23.45;17.88;;;4.50;99.90;;;;;;5055351;28;20225;-79
2023/01/29 08:35:22;;;;;;;31.10;21.17;;;4.60;99.90;;;;;;5055460;28;20224;-79
2023/01/29 08:37:57;;;;;;;26.52;19.05;;;4.60;99.90;;;;;;5055664;28;20298;-75
2023/01/29 08:40:27;;;;;;;30.45;21.35;;;4.60;99.90;;;;;;5055159;28;20307;-76
2023/01/29 08:42:58;;;;;;;31.88;20.02;;;4.60;99.90;;;;;;5055821;28;20220;-76
2023/01/29 08:45:25;;;;;;;29.15;19.92;;;4.70;99.90;;;;;;5055203;28;20586;-76
2023/01/29 08:47:52;;;;;;;30.42;20.25;;;4.70;99.90;;;;;;5055558;28;20232;-78
2023/01/29 08:50:19;;;;;;;26.10;19.67;;;4.70;99.90;;;;;;5054890;28;20233;-79
2023/01/29 08:52:46;;;;;;;26.85;19.10;;;4.70;99.90;;;;;;5055061;28;20567;-76
2023/01/29 08:55:14;;;;;;;31.30;21.63;;;4.80;99.90;;;;;;5054446;28;20229;-79
2023/01/29 08:57:42;;;;;;;28.75;20.30;;;4.80;99.90;;;;;;5055539;28;20555;-79
2023/01/29 09:00:11;;;;;;;26.25;18.90;;;4.80;99.90;;;;;;5054274;28;20301;-79
2023/01/29 09:02:38;;;;;;;31.98;21.55;;;4.80;99.90;;;;;;5055279;28;20615;-75
2023/01/29 09:05:06;;;;;;;23.00;16.38;;;4.70;99.90;;;;;;5053908;28;20315;-76
2023/01/29 09:07:33;;;;;;;24.83;19.02;;;4.80;99.90;;;;;;5044669;28;20232;-76
2023/01/29 09:10:01;;;;;;;28.75;21.25;;;4.80;99.90;;;;;;5054246;28;20232;-76
2023/01/29 09:12:28;;;;;;;28.92;19.80;;;4.80;99.90;;;;;;5054370;28;20320;-76
2023/01/29 09:14:57;;;;;;;25.58;19.25;;;4.80;99.90;;;;;;5055247;28;20275;-79
2023/01/29 09:17:24;;;;;;;27.35;21.05;;;4.80;99.90;;;;;;5054418;28;20228;-79
2023/01/29 09:19:51;;;;;;;25.58;17.73;;;4.80;99.90;;;;;;5054653;28;20236;-75
2023/01/29 09:22:19;;;;;;;27.17;19.27;;;4.80;99.90;;;;;;5054162;28;20259;-76
2023/01/29 09:24:46;;;;;;;27.63;20.95;;;4.80;99.90;;;;;;5055090;28;20304;-79
2023/01/29 09:27:13;;;;;;;27.27;18.67;;;4.90;99.90;;;;;;5045864;28;20243;-79
2023/01/29 09:29:40;;;;;;;32.83;21.08;;;4.90;99.90;;;;;;5055839;28;20286;-78
2023/01/29 09:32:11;;;;;;;42.38;22.95;;;4.90;99.90;;;;;;5054345;28;20252;-78
2023/01/29 09:34:39;;;;;;;27.48;19.80;;;4.90;99.90;;;;;;5054603;28;20221;-78
2023/01/29 09:37:06;;;;;;;28.60;20.15;;;4.90;99.90;;;;;;5054311;28;20250;-79
2023/01/29 09:39:33;;;;;;;30.55;21.92;;;4.90;99.90;;;;;;5053909;28;20240;-79
2023/01/29 09:42:08;;;;;;;32.28;21.63;;;5.00;99.90;;;;;;5054283;28;20303;-76
2023/01/29 09:44:53;;;;;;;28.27;21.15;;;4.90;99.90;;;;;;5053515;28;20228;-76
2023/01/29 09:47:25;;;;;;;24.90;18.23;;;5.00;99.90;;;;;;5053625;28;20666;-75
2023/01/29 09:50:00;;;;;;;25.45;18.45;;;5.00;99.90;;;;;;5054189;28;20694;-76
2023/01/29 09:52:30;;;;;;;25.55;18.35;;;5.00;99.90;;;;;;5054022;28;20228;-78
2023/01/29 09:55:02;;;;;;;29.48;20.88;;;5.00;99.90;;;;;;5054547;28;20275;-79
2023/01/29 09:57:41;;;;;;;26.60;18.70;;;5.00;99.90;;;;;;5053200;28;20224;-79
2023/01/29 10:00:15;;;;;;;29.58;18.58;;;5.00;99.90;;;;;;5054536;28;20316;-79
2023/01/29 10:03:10;;;;;;;26.08;18.75;;;5.10;99.90;;;;;;5054102;28;21239;-80
2023/01/29 10:05:51;;;;;;;23.23;18.10;;;5.10;99.90;;;;;;5054443;28;20279;-76
2023/01/29 10:08:43;;;;;;;21.17;16.52;;;5.20;99.90;;;;;;5054622;28;20229;-78
2023/01/29 10:11:25;;;;;;;21.05;16.00;;;5.20;99.90;;;;;;5053491;28;20728;-77
2023/01/29 10:14:01;;;;;;;30.35;22.60;;;5.30;99.90;;;;;;5055058;28;20232;-76
2023/01/29 10:16:46;;;;;;;27.88;19.17;;;5.30;99.90;;;;;;5043824;28;20256;-77
2023/01/29 10:19:35;;;;;;;25.65;18.60;;;5.30;99.90;;;;;;5053744;28;20216;-76
2023/01/29 10:22:32;;;;;;;27.02;18.20;;;5.30;99.90;;;;;;5058115;28;20227;-80
2023/01/29 10:25:03;;;;;;;25.38;15.52;;;5.30;99.90;;;;;;5056268;28;20280;-79
2023/01/29 10:27:33;;;;;;;24.17;16.63;;;5.40;99.90;;;;;;5054577;28;20536;-79
2023/01/29 10:30:03;;;;;;;22.00;16.67;;;5.40;99.90;;;;;;5053572;28;20255;-76
2023/01/29 10:32:32;;;;;;;20.05;15.00;;;5.50;99.90;;;;;;5053661;28;20227;-75
2023/01/29 10:35:04;;;;;;;22.73;15.95;;;5.50;99.90;;;;;;5052389;28;20670;-76
2023/01/29 10:37:39;;;;;;;22.65;15.88;;;5.60;99.90;;;;;;5053692;28;20227;-76
2023/01/29 10:40:23;;;;;;;21.77;14.70;;;5.60;99.90;;;;;;5052888;28;20224;-79
2023/01/29 10:42:56;;;;;;;20.48;14.27;;;5.60;99.90;;;;;;5053209;28;20247;-75
2023/01/29 10:45:30;;;;;;;17.95;14.18;;;5.60;99.90;;;;;;5052918;28;20643;-79
2023/01/29 10:48:32;;;;;;;18.77;14.13;;;5.70;99.90;;;;;;5055901;28;20247;-78
2023/01/29 10:51:13;;;;;;;20.27;14.32;;;5.70;99.90;;;;;;5055497;28;20650;-79
2023/01/29 10:53:53;;;;;;;19.52;14.93;;;5.70;99.90;;;;;;5052986;28;20221;-77
2023/01/29 10:56:33;;;;;;;17.95;13.88;;;5.80;99.90;;;;;;5053785;28;20224;-76
2023/01/29 10:59:06;;;;;;;17.83;13.73;;;5.80;99.90;;;;;;5053008;28;20286;-76
2023/01/29 11:01:33;;;;;;;18.27;14.70;;;5.80;99.90;;;;;;5053067;28;20243;-76
2023/01/29 11:04:03;;;;;;;15.48;12.32;;;5.80;99.90;;;;;;5052401;28;20650;-79
2023/01/29 11:06:33;;;;;;;23.67;15.70;;;5.90;99.90;;;;;;5056146;28;20227;-79
2023/01/29 11:09:08;;;;;;;16.95;12.95;;;6.00;99.90;;;;;;5052982;28;20286;-76
2023/01/29 11:11:42;;;;;;;18.25;11.40;;;6.00;99.90;;;;;;5053492;28;20270;-78
2023/01/29 11:14:14;;;;;;;18.30;12.98;;;6.00;99.90;;;;;;5051747;28;20216;-76
2023/01/29 11:16:47;;;;;;;18.27;12.30;;;6.10;99.90;;;;;;5053103;28;20216;-77
2023/01/29 11:19:15;;;;;;;13.45;11.30;;;6.10;99.90;;;;;;5051994;28;20235;-76
2023/01/29 11:21:53;;;;;;;20.52;14.60;;;6.10;99.90;;;;;;5053067;28;20270;-79
2023/01/29 11:24:23;;;;;;;16.98;12.40;;;6.10;99.90;;;;;;5052343;28;20220;-79
2023/01/29 11:26:51;;;;;;;14.05;11.52;;;6.20;99.90;;;;;;5052657;28;20294;-76
2023/01/29 11:29:38;;;;;;;21.95;14.63;;;6.20;99.90;;;;;;5052012;28;20259;-77
2023/01/29 11:32:07;;;;;;;24.77;16.58;;;6.20;99.90;;;;;;5051540;28;20294;-79
2023/01/29 11:34:34;;;;;;;18.70;14.23;;;6.20;99.90;;;;;;5053306;28;20220;-79
2023/01/29 11:37:05;;;;;;;18.02;14.32;;;6.30;99.90;;;;;;5052146;28;20251;-79
2023/01/29 11:39:33;;;;;;;18.67;14.50;;;6.30;99.90;;;;;;5051996;28;20224;-77
2023/01/29 11:42:07;;;;;;;17.80;14.07;;;6.30;99.90;;;;;;5051957;28;20228;-76
2023/01/29 11:44:43;;;;;;;17.27;12.75;;;6.40;99.90;;;;;;5052775;28;20216;-77
2023/01/29 11:47:19;;;;;;;17.02;13.20;;;6.40;99.90;;;;;;5051782;28;20232;-80
2023/01/29 11:49:49;;;;;;;18.05;13.70;;;6.50;99.90;;;;;;5052652;28;20232;-79
2023/01/29 11:52:24;;;;;;;19.00;13.40;;;6.50;99.90;;;;;;5052509;28;20285;-76
2023/01/29 11:54:55;;;;;;;17.00;13.00;;;6.50;99.90;;;;;;5052805;28;20224;-76
2023/01/29 11:57:27;;;;;;;19.48;14.40;;;6.50;99.90;;;;;;5052239;28;20286;-76
2023/01/29 11:59:57;;;;;;;15.63;12.68;;;6.50;99.90;;;;;;5052487;28;20221;-76
2023/01/29 12:02:30;;;;;;;18.25;14.07;;;6.50;99.90;;;;;;5051507;28;20591;-76
2023/01/29 12:05:01;;;;;;;20.75;15.05;;;6.50;99.90;;;;;;5053034;28;20228;-76
2023/01/29 12:07:30;;;;;;;17.98;13.88;;;6.50;99.90;;;;;;5052726;28;20228;-77
2023/01/29 12:10:02;;;;;;;18.65;12.43;;;6.50;99.90;;;;;;5052057;28;20290;-77
2023/01/29 12:12:33;;;;;;;19.20;12.80;;;6.50;99.90;;;;;;5051791;28;20232;-77
2023/01/29 12:15:23;;;;;;;17.00;12.90;;;6.60;99.90;;;;;;5052792;28;20295;-77
2023/01/29 12:18:08;;;;;;;14.07;10.75;;;6.60;99.90;;;;;;5052225;28;20607;-77
2023/01/29 12:20:42;;;;;;;13.70;10.77;;;6.60;99.90;;;;;;5052523;28;20228;-75
2023/01/29 12:23:38;;;;;;;19.52;14.52;;;6.70;99.90;;;;;;5051785;28;20227;-78
2023/01/29 12:26:12;;;;;;;20.70;14.25;;;6.70;99.90;;;;;;5044115;28;20678;-77
2023/01/29 12:28:50;;;;;;;14.48;11.50;;;6.70;99.90;;;;;;5046121;28;20213;-76
2023/01/29 12:31:28;;;;;;;15.35;11.88;;;6.80;99.90;;;;;;5055319;28;20216;-75
2023/01/29 12:34:02;;;;;;;19.35;12.02;;;6.80;99.90;;;;;;5055512;28;20259;-76
2023/01/29 12:36:35;;;;;;;17.67;13.10;;;6.80;99.90;;;;;;5055440;28;20555;-76
2023/01/29 12:39:03;;;;;;;15.55;11.00;;;6.80;99.90;;;;;;5044203;28;20225;-76
2023/01/29 12:41:39;;;;;;;14.05;11.32;;;6.80;99.90;;;;;;5055053;28;20623;-75
2023/01/29 12:44:13;;;;;;;17.75;12.35;;;6.90;99.90;;;;;;5055527;28;20307;-75
2023/01/29 12:46:45;;;;;;;15.23;9.90;;;6.90;99.90;;;;;;5057883;28;20263;-76
2023/01/29 12:49:18;;;;;;;15.25;12.57;;;6.90;99.90;;;;;;5056725;28;20290;-77
2023/01/29 12:51:55;;;;;;;16.58;12.13;;;6.90;99.90;;;;;;5057800;28;20294;-76
2023/01/29 12:54:33;;;;;;;17.40;13.38;;;6.80;99.90;;;;;;5057873;28;20705;-76
2023/01/29 12:57:03;;;;;;;16.17;11.23;;;6.80;99.90;;;;;;5060138;28;20690;-77
2023/01/29 12:59:36;;;;;;;11.45;10.05;;;6.80;99.90;;;;;;5060734;28;20236;-76
2023/01/29 13:02:15;;;;;;;18.77;13.57;;;6.80;99.90;;;;;;5061587;28;20220;-76
2023/01/29 13:04:46;;;;;;;17.80;12.02;;;6.80;99.90;;;;;;5066366;28;20227;-79
2023/01/29 13:07:17;;;;;;;18.20;13.60;;;6.70;99.90;;;;;;5067785;28;20220;-78
2023/01/29 13:09:53;;;;;;;16.48;10.98;;;6.70;99.90;;;;;;5069414;28;20657;-79
2023/01/29 13:12:23;;;;;;;20.20;15.00;;;6.70;99.90;;;;;;5064243;28;20220;-75
2023/01/29 13:14:54;;;;;;;17.42;13.48;;;6.70;99.90;;;;;;5058443;28;20671;-79
2023/01/29 13:17:26;;;;;;;21.38;13.95;;;6.70;99.90;;;;;;5057915;28;20220;-79
2023/01/29 13:19:59;;;;;;;24.45;15.38;;;6.70;99.90;;;;;;5058118;28;20248;-80
2023/01/29 13:22:29;;;;;;;14.50;12.27;;;6.70;99.90;;;;;;5058305;28;20220;-79
2023/01/29 13:24:58;;;;;;;17.88;13.55;;;6.70;99.90;;;;;;5059036;28;20228;-80
2023/01/29 13:27:28;;;;;;;18.48;14.82;;;6.70;99.90;;;;;;5056671;28;20227;-77
2023/01/29 13:29:57;;;;;;;15.48;13.60;;;6.70;99.90;;;;;;5055059;28;20228;-78
2023/01/29 13:32:27;;;;;;;16.50;12.38;;;6.70;99.90;;;;;;5055769;28;20300;-75
2023/01/29 13:34:56;;;;;;;20.95;14.30;;;6.70;99.90;;;;;;5055898;28;20236;-76
2023/01/29 13:37:33;;;;;;;19.05;14.38;;;6.70;99.90;;;;;;5053882;28;20225;-79
2023/01/29 13:40:08;;;;;;;22.70;16.85;;;6.70;99.90;;;;;;5055325;28;20244;-78
2023/01/29 13:42:42;;;;;;;21.40;15.18;;;6.70;99.90;;;;;;5054723;28;20224;-78
2023/01/29 13:45:20;;;;;;;21.77;14.43;;;6.70;99.90;;;;;;5054898;28;20228;-78
2023/01/29 13:47:55;;;;;;;21.52;13.30;;;6.70;99.90;;;;;;5055155;28;20571;-78